createdAt,value
2023-04-02T00:01:04.321Z,97680.47
2023-04-02T00:03:43.807Z,97684.75
2023-04-02T00:06:34.874Z,97680.59
2023-04-02T00:09:13.675Z,97682.13
2023-04-02T00:11:44.721Z,97690.84
2023-04-02T00:14:33.497Z,97687.41
2023-04-02T00:17:02.494Z,97673.59
2023-04-02T00:19:36.806Z,97692.16
2023-04-02T00:22:07.810Z,97695.59
2023-04-02T00:24:34.325Z,97685.53
2023-04-02T00:27:01.070Z,97693.84
2023-04-02T00:29:27.639Z,97695.00
2023-04-02T00:31:54.749Z,97698.97
2023-04-02T00:34:30.634Z,97704.59
2023-04-02T00:36:57.384Z,97707.84
2023-04-02T00:39:27.232Z,97705.28
2023-04-02T00:42:04.787Z,97686.56
2023-04-02T00:44:37.867Z,97704.38
2023-04-02T00:47:24.448Z,97704.25
2023-04-02T00:49:58.683Z,97701.69
2023-04-02T00:52:29.316Z,97705.38
2023-04-02T00:55:10.500Z,97701.28
2023-04-02T00:57:37.514Z,97706.91
2023-04-02T01:00:22.515Z,97704.38
2023-04-02T01:03:17.163Z,97698.28
2023-04-02T01:05:50.618Z,97697.50
2023-04-02T01:08:35.048Z,97704.78
2023-04-02T01:11:25.775Z,97686.44
2023-04-02T01:13:52.173Z,97700.66
2023-04-02T01:16:22.784Z,97714.47
2023-04-02T01:19:02.385Z,97703.03
2023-04-02T01:21:55.529Z,97706.66
2023-04-02T01:24:26.554Z,97685.53
2023-04-02T01:26:52.984Z,97706.25
2023-04-02T01:29:27.555Z,97708.50
2023-04-02T01:31:57.639Z,97707.22
2023-04-02T01:34:27.252Z,97708.19
2023-04-02T01:36:59.788Z,97721.44
2023-04-02T01:39:57.188Z,97716.53
2023-04-02T01:42:29.705Z,97718.63
2023-04-02T01:45:15.199Z,97719.69
2023-04-02T01:47:43.692Z,97710.44
2023-04-02T01:50:33.112Z,97718.13
2023-04-02T01:53:02.282Z,97717.00
2023-04-02T01:55:32.430Z,97719.44
2023-04-02T01:58:01.297Z,97718.53
2023-04-02T02:00:30.345Z,97721.88
2023-04-02T02:02:57.132Z,97730.97
2023-04-02T02:05:24.460Z,97724.72
2023-04-02T02:07:53.511Z,97719.94
2023-04-02T02:10:33.040Z,97719.78
2023-04-02T02:13:00.534Z,97718.66
2023-04-02T02:15:27.888Z,97723.41
2023-04-02T02:18:00.956Z,97727.22
2023-04-02T02:20:29.080Z,97715.66
2023-04-02T02:22:57.262Z,97724.66
2023-04-02T02:25:34.174Z,97724.97
2023-04-02T02:28:14.075Z,97723.94
2023-04-02T02:30:50.879Z,97726.13
2023-04-02T02:33:31.292Z,97718.34
2023-04-02T02:36:26.132Z,97725.94
2023-04-02T02:39:03.780Z,97722.06
2023-04-02T02:41:45.183Z,97711.94
2023-04-02T02:44:22.033Z,97723.00
2023-04-02T02:46:55.123Z,97720.84
2023-04-02T02:49:27.542Z,97727.75
2023-04-02T02:52:26.933Z,97733.03
2023-04-02T02:54:59.552Z,97734.34
2023-04-02T02:57:33.453Z,97739.56
2023-04-02T03:00:01.972Z,97737.69
2023-04-02T03:02:29.204Z,97731.13
2023-04-02T03:04:58.277Z,97740.34
2023-04-02T03:07:27.369Z,97747.25
2023-04-02T03:10:05.987Z,97751.78
2023-04-02T03:12:38.412Z,97755.72
2023-04-02T03:15:20.122Z,97751.13
2023-04-02T03:17:57.353Z,97752.69
2023-04-02T03:20:23.924Z,97750.00
2023-04-02T03:23:14.114Z,97748.81
2023-04-02T03:25:55.998Z,97760.53
2023-04-02T03:28:28.830Z,97762.00
2023-04-02T03:31:02.975Z,97759.00
2023-04-02T03:33:40.121Z,97764.84
2023-04-02T03:36:38.465Z,97770.47
2023-04-02T03:39:19.109Z,97755.22
2023-04-02T03:41:55.480Z,97758.00
2023-04-02T03:44:34.124Z,97775.00
2023-04-02T03:47:27.251Z,97776.22
2023-04-02T03:50:12.025Z,97781.94
2023-04-02T03:52:39.328Z,97775.22
2023-04-02T03:55:17.505Z,97780.50
2023-04-02T03:58:14.824Z,97767.88
2023-04-02T04:01:17.450Z,97780.34
2023-04-02T04:03:51.561Z,97783.63
2023-04-02T04:06:21.417Z,97787.09
2023-04-02T04:08:58.764Z,97789.84
2023-04-02T04:11:35.027Z,97794.47
2023-04-02T04:14:30.982Z,97792.81
2023-04-02T04:17:09.569Z,97791.97
2023-04-02T04:19:55.450Z,97798.28
2023-04-02T04:22:31.819Z,97789.59
2023-04-02T04:25:01.957Z,97795.00
2023-04-02T04:27:37.274Z,97806.22
2023-04-02T04:30:19.727Z,97798.31
2023-04-02T04:33:00.537Z,97803.44
2023-04-02T04:35:53.378Z,97792.69
2023-04-02T04:38:44.172Z,97799.78
2023-04-02T04:41:16.389Z,97809.31
2023-04-02T04:43:48.453Z,97804.53
2023-04-02T04:46:33.192Z,97800.97
2023-04-02T04:49:40.966Z,97813.50
2023-04-02T04:52:39.951Z,97805.59
2023-04-02T04:55:27.619Z,97818.22
2023-04-02T04:58:04.031Z,97801.91
2023-04-02T05:00:44.066Z,97808.44
2023-04-02T05:03:54.698Z,97815.00
2023-04-02T05:06:32.816Z,97819.06
2023-04-02T05:09:21.256Z,97810.81
2023-04-02T05:11:59.184Z,97814.75
2023-04-02T05:14:35.564Z,97824.66
2023-04-02T05:17:13.509Z,97836.56
2023-04-02T05:19:53.699Z,97843.53
2023-04-02T05:22:33.405Z,97828.00
2023-04-02T05:25:19.919Z,97842.59
2023-04-02T05:28:01.773Z,97854.94
2023-04-02T05:30:28.146Z,97848.47
2023-04-02T05:33:02.748Z,97857.44
2023-04-02T05:35:36.624Z,97864.34
2023-04-02T05:38:06.589Z,97850.13
2023-04-02T05:40:39.830Z,97867.56
2023-04-02T05:43:10.785Z,97854.13
2023-04-02T05:45:41.262Z,97883.84
2023-04-02T05:48:18.545Z,97881.38
2023-04-02T05:50:51.141Z,97890.72
2023-04-02T05:53:41.453Z,97891.53
2023-04-02T05:56:17.786Z,97883.72
2023-04-02T05:59:16.742Z,97905.25
2023-04-02T06:01:58.882Z,97906.47
2023-04-02T06:04:37.686Z,97896.66
2023-04-02T06:07:22.830Z,97899.13
2023-04-02T06:09:54.258Z,97900.38
2023-04-02T06:12:35.043Z,97900.66
2023-04-02T06:15:06.800Z,97896.06
2023-04-02T06:17:52.882Z,97906.38
2023-04-02T06:20:20.954Z,97903.59
2023-04-02T06:22:52.326Z,97919.13
2023-04-02T06:25:29.171Z,97912.28
2023-04-02T06:28:01.733Z,97915.47
2023-04-02T06:30:33.628Z,97914.59
2023-04-02T06:33:03.159Z,97922.19
2023-04-02T06:35:32.874Z,97922.09
2023-04-02T06:38:04.039Z,97922.94
2023-04-02T06:40:45.449Z,97926.00
2023-04-02T06:43:26.282Z,97932.94
2023-04-02T06:45:56.865Z,97919.53
2023-04-02T06:48:36.410Z,97937.97
2023-04-02T06:51:09.635Z,97897.69
2023-04-02T06:53:43.234Z,97933.78
2023-04-02T06:56:22.244Z,97938.59
2023-04-02T06:58:48.872Z,97933.22
2023-04-02T07:01:19.674Z,97933.41
2023-04-02T07:03:46.332Z,97937.78
2023-04-02T07:06:19.138Z,97943.22
2023-04-02T07:08:46.143Z,97946.31
2023-04-02T07:11:20.209Z,97946.47
2023-04-02T07:13:48.691Z,97956.34
2023-04-02T07:16:21.111Z,97932.97
2023-04-02T07:18:48.708Z,97934.41
2023-04-02T07:21:15.550Z,97951.41
2023-04-02T07:23:42.015Z,97950.78
2023-04-02T07:26:15.046Z,97942.72
2023-04-02T07:28:41.989Z,97942.84
2023-04-02T07:31:27.139Z,97951.81
2023-04-02T07:33:58.211Z,97951.34
2023-04-02T07:36:25.404Z,97959.47
2023-04-02T07:38:52.474Z,97965.31
2023-04-02T07:41:19.815Z,97955.06
2023-04-02T07:43:47.005Z,97951.41
2023-04-02T07:46:16.628Z,97962.13
2023-04-02T07:48:44.166Z,97967.97
2023-04-02T07:51:25.788Z,97963.63
2023-04-02T07:53:56.065Z,97969.59
2023-04-02T07:56:24.972Z,97971.44
2023-04-02T07:58:51.614Z,97967.78
2023-04-02T08:01:19.976Z,97976.56
2023-04-02T08:03:47.583Z,97968.03
2023-04-02T08:06:14.198Z,97964.41
2023-04-02T08:08:41.519Z,97976.50
2023-04-02T08:11:08.923Z,97984.44
2023-04-02T08:13:35.800Z,97961.75
2023-04-02T08:16:06.842Z,97986.75
2023-04-02T08:18:33.677Z,97992.72
2023-04-02T08:21:04.465Z,97995.50
2023-04-02T08:23:33.811Z,97975.94
2023-04-02T08:26:03.353Z,97996.81
2023-04-02T08:28:32.570Z,97989.47
2023-04-02T08:30:59.138Z,97960.28
2023-04-02T08:33:26.099Z,98002.66
2023-04-02T08:35:52.874Z,98008.97
2023-04-02T08:38:22.721Z,98012.63
2023-04-02T08:40:51.990Z,98021.56
2023-04-02T08:43:51.452Z,98025.91
2023-04-02T08:46:43.685Z,98028.72
2023-04-02T08:49:19.661Z,98010.84
2023-04-02T08:51:47.394Z,98028.06
2023-04-02T08:54:38.018Z,98028.41
2023-04-02T08:57:11.620Z,98036.84
2023-04-02T08:59:42.139Z,98035.72
2023-04-02T09:02:11.654Z,98036.88
2023-04-02T09:04:38.696Z,97998.16
2023-04-02T09:07:05.306Z,98028.75
2023-04-02T09:09:38.312Z,98043.16
2023-04-02T09:12:07.289Z,98047.97
2023-04-02T09:14:43.433Z,98046.91
2023-04-02T09:17:21.961Z,98054.50
2023-04-02T09:20:02.872Z,98048.91
2023-04-02T09:22:31.930Z,98067.31
2023-04-02T09:25:05.260Z,98055.44
2023-04-02T09:27:36.938Z,98060.19
2023-04-02T09:30:11.542Z,98071.28
2023-04-02T09:32:51.443Z,98070.69
2023-04-02T09:35:26.571Z,98079.97
2023-04-02T09:38:19.713Z,98082.94
2023-04-02T09:40:59.004Z,98081.66
2023-04-02T09:43:37.467Z,98085.97
2023-04-02T09:46:13.574Z,98087.00
2023-04-02T09:49:06.367Z,98082.63
2023-04-02T09:51:36.791Z,98084.66
2023-04-02T09:54:08.523Z,98088.63
2023-04-02T09:56:36.720Z,98086.41
2023-04-02T09:59:13.189Z,98091.94
2023-04-02T10:01:44.314Z,98086.19
2023-04-02T10:04:47.705Z,98099.13
2023-04-02T10:07:45.202Z,98094.34
2023-04-02T10:10:14.444Z,98100.16
2023-04-02T10:12:45.666Z,98101.59
2023-04-02T10:15:21.232Z,98093.78
2023-04-02T10:18:05.196Z,98108.47
2023-04-02T10:20:48.594Z,98105.63
2023-04-02T10:23:19.372Z,98114.66
2023-04-02T10:26:24.096Z,98117.94
2023-04-02T10:28:59.549Z,98119.28
2023-04-02T10:31:55.793Z,98129.59
2023-04-02T10:34:39.433Z,98114.19
2023-04-02T10:37:49.846Z,98126.13
2023-04-02T10:40:48.533Z,98126.84
2023-04-02T10:43:48.077Z,98128.13
2023-04-02T10:46:25.403Z,98127.94
2023-04-02T10:49:06.491Z,98122.13
2023-04-02T10:51:48.907Z,98117.63
2023-04-02T10:54:33.859Z,98123.09
2023-04-02T10:57:22.249Z,98132.38
2023-04-02T11:00:10.673Z,98129.31
2023-04-02T11:02:49.410Z,98130.63
2023-04-02T11:05:23.547Z,98135.75
2023-04-02T11:08:04.918Z,98133.22
2023-04-02T11:10:35.280Z,98139.41
2023-04-02T11:13:15.475Z,98139.91
2023-04-02T11:15:42.457Z,98141.09
2023-04-02T11:18:40.556Z,98137.91
2023-04-02T11:21:25.748Z,98144.31
2023-04-02T11:24:05.775Z,98140.41
2023-04-02T11:26:38.282Z,98136.56
2023-04-02T11:29:12.995Z,98138.38
2023-04-02T11:31:40.019Z,98136.53
2023-04-02T11:34:06.594Z,98156.53
2023-04-02T11:36:52.864Z,98155.63
2023-04-02T11:39:45.437Z,98162.34
2023-04-02T11:42:18.005Z,98167.00
2023-04-02T11:44:44.821Z,98165.63
2023-04-02T11:47:26.255Z,98158.19
2023-04-02T11:49:55.718Z,98171.22
2023-04-02T11:52:24.136Z,98172.75
2023-04-02T11:54:58.294Z,98169.56
2023-04-02T11:58:05.514Z,98174.63
2023-04-02T12:01:07.915Z,98165.78
2023-04-02T12:04:03.585Z,98171.22
2023-04-02T12:06:46.839Z,98162.41
2023-04-02T12:09:25.978Z,98175.38
2023-04-02T12:11:55.511Z,98177.44
2023-04-02T12:14:51.257Z,98187.69
2023-04-02T12:17:24.356Z,98189.72
2023-04-02T12:19:55.073Z,98193.63
2023-04-02T12:22:37.681Z,98184.00
2023-04-02T12:25:18.181Z,98186.19
2023-04-02T12:27:46.558Z,98186.41
2023-04-02T12:30:22.331Z,98195.06
2023-04-02T12:32:49.464Z,98193.13
2023-04-02T12:35:35.050Z,98195.06
2023-04-02T12:38:04.767Z,98191.59
2023-04-02T12:40:33.383Z,98191.19
2023-04-02T12:42:59.981Z,98187.44
2023-04-02T12:45:30.684Z,98189.66
2023-04-02T12:47:58.085Z,98194.88
2023-04-02T12:50:24.829Z,98187.22
2023-04-02T12:52:54.883Z,98188.81
2023-04-02T12:55:23.982Z,98192.00
2023-04-02T12:57:58.848Z,98192.00
2023-04-02T13:00:25.697Z,98193.81
2023-04-02T13:03:18.349Z,98192.81
2023-04-02T13:05:52.290Z,98188.97
2023-04-02T13:08:30.994Z,98196.16
2023-04-02T13:11:00.616Z,98183.81
2023-04-02T13:13:39.394Z,98171.63
2023-04-02T13:16:14.865Z,98200.22
2023-04-02T13:18:43.159Z,98206.94
2023-04-02T13:21:29.628Z,98198.03
2023-04-02T13:23:56.052Z,98187.22
2023-04-02T13:26:25.743Z,98208.78
2023-04-02T13:29:05.135Z,98209.63
2023-04-02T13:31:32.749Z,98208.47
2023-04-02T13:34:00.455Z,98199.50
2023-04-02T13:36:29.206Z,98207.75
2023-04-02T13:38:56.077Z,98204.06
2023-04-02T13:41:26.385Z,98209.03
2023-04-02T13:43:54.258Z,98197.50
2023-04-02T13:46:26.436Z,98209.19
2023-04-02T13:48:54.768Z,98208.59
2023-04-02T13:51:24.241Z,98194.66
2023-04-02T13:53:57.028Z,98225.56
2023-04-02T13:56:24.627Z,98219.84
2023-04-02T13:58:52.198Z,98204.44
2023-04-02T14:01:21.404Z,98209.97
2023-04-02T14:03:47.952Z,98218.25
2023-04-02T14:06:42.462Z,98216.63
2023-04-02T14:09:21.979Z,98223.44
2023-04-02T14:12:14.808Z,98207.47
2023-04-02T14:14:56.268Z,98221.72
2023-04-02T14:17:34.366Z,98218.88
2023-04-02T14:20:16.923Z,98224.91
2023-04-02T14:23:03.710Z,98225.75
2023-04-02T14:26:09.799Z,98232.91
2023-04-02T14:28:57.282Z,98235.38
2023-04-02T14:31:32.532Z,98237.19
2023-04-02T14:34:13.898Z,98237.00
2023-04-02T14:37:04.416Z,98235.78
2023-04-02T14:39:55.360Z,98234.00
2023-04-02T14:42:38.416Z,98238.66
2023-04-02T14:45:27.194Z,98237.66
2023-04-02T14:48:00.747Z,98225.56
2023-04-02T14:50:33.360Z,98236.38
2023-04-02T14:53:08.973Z,98229.16
2023-04-02T14:55:43.919Z,98245.16
2023-04-02T14:58:18.878Z,98241.91
2023-04-02T15:00:56.148Z,98236.63
2023-04-02T15:03:25.859Z,98244.03
2023-04-02T15:06:05.396Z,98238.75
2023-04-02T15:08:40.584Z,98246.34
2023-04-02T15:11:15.342Z,98245.53
2023-04-02T15:14:03.964Z,98250.63
2023-04-02T15:16:32.395Z,98233.06
2023-04-02T15:19:01.234Z,98240.91
2023-04-02T15:21:55.805Z,98247.47
2023-04-02T15:24:45.054Z,98250.91
2023-04-02T15:27:29.713Z,98254.59
2023-04-02T15:30:02.295Z,98252.47
2023-04-02T15:32:38.572Z,98249.88
2023-04-02T15:35:31.472Z,98259.94
2023-04-02T15:38:15.826Z,98258.75
2023-04-02T15:41:00.454Z,98256.91
2023-04-02T15:44:00.769Z,98249.94
2023-04-02T15:46:38.836Z,98267.56
2023-04-02T15:49:28.861Z,98265.34
2023-04-02T15:52:11.062Z,98244.31
2023-04-02T15:55:00.185Z,98267.72
2023-04-02T15:57:59.005Z,98264.06
2023-04-02T16:00:47.824Z,98265.16
2023-04-02T16:03:33.466Z,98270.31
2023-04-02T16:06:16.701Z,98267.06
2023-04-02T16:09:09.995Z,98269.78
2023-04-02T16:11:40.734Z,98265.72
2023-04-02T16:14:27.399Z,98275.44
2023-04-02T16:17:02.095Z,98277.03
2023-04-02T16:19:40.022Z,98282.53
2023-04-02T16:22:16.985Z,98285.44
2023-04-02T16:24:43.436Z,98280.75
2023-04-02T16:27:40.891Z,98287.56
2023-04-02T16:30:39.949Z,98283.16
2023-04-02T16:33:15.447Z,98293.59
2023-04-02T16:36:17.642Z,98298.16
2023-04-02T16:38:55.888Z,98301.50
2023-04-02T16:41:31.077Z,98302.53
2023-04-02T16:44:17.140Z,98296.53
2023-04-02T16:46:55.734Z,98303.16
2023-04-02T16:49:32.908Z,98304.41
2023-04-02T16:52:15.045Z,98311.66
2023-04-02T16:55:03.737Z,98312.88
2023-04-02T16:57:30.597Z,98314.41
2023-04-02T17:00:22.003Z,98319.13
2023-04-02T17:03:14.600Z,98314.41
2023-04-02T17:06:02.780Z,98320.09
2023-04-02T17:08:39.405Z,98317.09
2023-04-02T17:11:09.197Z,98318.22
2023-04-02T17:13:41.581Z,98329.03
2023-04-02T17:16:30.424Z,98329.59
2023-04-02T17:18:59.731Z,98322.97
2023-04-02T17:21:29.100Z,98319.41
2023-04-02T17:24:00.378Z,98339.25
2023-04-02T17:26:29.892Z,98334.09
2023-04-02T17:29:00.883Z,98332.00
2023-04-02T17:31:34.300Z,98338.16
2023-04-02T17:34:11.970Z,98348.16
2023-04-02T17:37:04.881Z,98355.91
2023-04-02T17:40:18.959Z,98355.66
2023-04-02T17:43:09.885Z,98354.94
2023-04-02T17:46:12.145Z,98356.19
2023-04-02T17:49:05.492Z,98351.19
2023-04-02T17:52:05.403Z,98356.19
2023-04-02T17:54:51.553Z,98359.25
2023-04-02T17:57:48.124Z,98366.91
2023-04-02T18:00:29.483Z,98369.50
2023-04-02T18:03:06.097Z,98365.34
2023-04-02T18:05:42.301Z,98378.97
2023-04-02T18:08:15.820Z,98368.56
2023-04-02T18:10:51.657Z,98376.19
2023-04-02T18:13:23.766Z,98383.66
2023-04-02T18:16:12.089Z,98385.34
2023-04-02T18:18:55.993Z,98372.16
2023-04-02T18:21:31.375Z,98384.22
2023-04-02T18:24:21.212Z,98385.63
2023-04-02T18:27:24.787Z,98399.38
2023-04-02T18:29:51.316Z,98395.56
2023-04-02T18:32:29.942Z,98392.84
2023-04-02T18:35:26.049Z,98367.59
2023-04-02T18:38:24.956Z,98397.41
2023-04-02T18:40:51.588Z,98399.19
2023-04-02T18:43:30.818Z,98402.00
2023-04-02T18:46:22.466Z,98410.19
2023-04-02T18:49:28.277Z,98410.72
2023-04-02T18:52:00.462Z,98384.41
2023-04-02T18:54:48.359Z,98410.34
2023-04-02T18:57:28.864Z,98415.75
2023-04-02T19:00:04.810Z,98425.59
2023-04-02T19:02:40.227Z,98417.97
2023-04-02T19:05:23.563Z,98407.56
2023-04-02T19:07:55.313Z,98420.75
2023-04-02T19:10:26.120Z,98433.22
2023-04-02T19:12:52.710Z,98427.41
2023-04-02T19:15:21.336Z,98407.00
2023-04-02T19:18:10.804Z,98438.38
2023-04-02T19:21:02.183Z,98450.69
2023-04-02T19:23:55.140Z,98449.88
2023-04-02T19:26:29.497Z,98453.78
2023-04-02T19:29:26.424Z,98451.69
2023-04-02T19:32:20.902Z,98455.44
2023-04-02T19:34:56.516Z,98456.97
2023-04-02T19:37:42.928Z,98460.16
2023-04-02T19:40:43.990Z,98458.63
2023-04-02T19:43:11.430Z,98458.72
2023-04-02T19:45:40.511Z,98472.47
2023-04-02T19:48:14.412Z,98470.28
2023-04-02T19:50:41.279Z,98449.16
2023-04-02T19:53:10.908Z,98464.16
2023-04-02T19:55:42.954Z,98477.78
2023-04-02T19:58:28.790Z,98481.53
2023-04-02T20:00:56.134Z,98483.63
2023-04-02T20:03:23.314Z,98493.16
2023-04-02T20:05:50.367Z,98493.31
2023-04-02T20:08:17.261Z,98497.75
2023-04-02T20:10:44.431Z,98486.38
2023-04-02T20:13:11.084Z,98496.81
2023-04-02T20:15:41.783Z,98502.75
2023-04-02T20:18:10.466Z,98479.69
2023-04-02T20:20:40.526Z,98507.47
2023-04-02T20:23:09.142Z,98493.44
2023-04-02T20:25:35.631Z,98491.53
2023-04-02T20:28:03.911Z,98511.63
2023-04-02T20:30:32.404Z,98513.41
2023-04-02T20:32:59.400Z,98513.84
2023-04-02T20:35:26.645Z,98517.44
2023-04-02T20:37:53.392Z,98510.94
2023-04-02T20:40:19.900Z,98517.06
2023-04-02T20:42:46.474Z,98504.16
2023-04-02T20:45:12.945Z,98504.44
2023-04-02T20:47:43.072Z,98519.81
2023-04-02T20:50:10.699Z,98512.56
2023-04-02T20:52:37.168Z,98514.13
2023-04-02T20:55:05.195Z,98518.44
2023-04-02T20:57:31.832Z,98504.16
2023-04-02T20:59:59.052Z,98513.56
2023-04-02T21:02:25.643Z,98518.84
2023-04-02T21:04:52.166Z,98504.94
2023-04-02T21:07:18.748Z,98525.50
2023-04-02T21:09:45.214Z,98518.22
2023-04-02T21:12:12.251Z,98521.03
2023-04-02T21:14:40.599Z,98524.34
2023-04-02T21:17:07.784Z,98523.50
2023-04-02T21:19:34.825Z,98514.63
2023-04-02T21:22:01.376Z,98526.84
2023-04-02T21:24:28.103Z,98485.28
2023-04-02T21:26:54.797Z,98501.84
2023-04-02T21:29:21.352Z,98516.28
2023-04-02T21:31:48.172Z,98523.09
2023-04-02T21:34:16.905Z,98527.97
2023-04-02T21:36:45.985Z,98529.50
2023-04-02T21:39:22.442Z,98517.00
2023-04-02T21:41:50.848Z,98530.44
2023-04-02T21:44:24.194Z,98516.53
2023-04-02T21:46:53.022Z,98513.66
2023-04-02T21:49:22.801Z,98521.81
2023-04-02T21:51:51.789Z,98528.09
2023-04-02T21:54:19.261Z,98523.09
2023-04-02T21:56:47.333Z,98527.97
2023-04-02T21:59:15.469Z,98517.53
2023-04-02T22:01:49.907Z,98526.00
2023-04-02T22:04:24.662Z,98529.84
2023-04-02T22:06:52.498Z,98530.25
2023-04-02T22:09:22.375Z,98531.13
2023-04-02T22:12:01.461Z,98534.41
2023-04-02T22:14:28.216Z,98523.00
2023-04-02T22:16:55.024Z,98524.97
2023-04-02T22:19:21.622Z,98515.97
2023-04-02T22:21:48.132Z,98519.50
2023-04-02T22:24:18.713Z,98519.88
2023-04-02T22:26:46.093Z,98502.91
2023-04-02T22:29:14.742Z,98519.41
2023-04-02T22:31:41.560Z,98511.34
2023-04-02T22:34:08.067Z,98513.03
2023-04-02T22:36:35.160Z,98518.19
2023-04-02T22:39:05.549Z,98516.66
2023-04-02T22:41:32.628Z,98512.63
2023-04-02T22:44:00.824Z,98517.22
2023-04-02T22:46:28.606Z,98515.81
2023-04-02T22:48:56.224Z,98525.53
2023-04-02T22:51:24.598Z,98521.78
2023-04-02T22:53:53.513Z,98518.84
2023-04-02T22:56:22.964Z,98513.88
2023-04-02T22:58:50.245Z,98517.75
2023-04-02T23:01:32.736Z,98507.47
2023-04-02T23:03:59.172Z,98504.28
2023-04-02T23:06:25.953Z,98504.66
2023-04-02T23:08:52.860Z,98514.41
2023-04-02T23:11:25.901Z,98504.34
2023-04-02T23:13:54.040Z,98499.19
2023-04-02T23:16:22.587Z,98497.59
2023-04-02T23:18:49.789Z,98501.59
2023-04-02T23:21:20.533Z,98486.06
2023-04-02T23:23:50.491Z,98505.78
2023-04-02T23:26:31.391Z,98494.00
2023-04-02T23:28:59.559Z,98483.56
2023-04-02T23:31:26.388Z,98481.22
2023-04-02T23:33:53.002Z,98486.66
2023-04-02T23:36:28.600Z,98488.63
2023-04-02T23:38:57.974Z,98489.84
2023-04-02T23:41:26.894Z,98489.56
2023-04-02T23:43:55.281Z,98492.47
2023-04-02T23:46:22.934Z,98486.22
2023-04-02T23:48:50.601Z,98483.56
2023-04-02T23:51:17.686Z,98479.56
2023-04-02T23:53:44.271Z,98493.72
2023-04-02T23:56:10.932Z,98479.88
2023-04-02T23:58:37.671Z,98490.00
